createdAt,value
2022-09-17T00:00:55.538Z,20.50
2022-09-17T00:01:57.777Z,20.60
2022-09-17T00:03:00.043Z,20.60
2022-09-17T00:04:03.936Z,20.60
2022-09-17T00:05:06.747Z,20.50
2022-09-17T00:06:10.307Z,20.50
2022-09-17T00:07:12.528Z,20.50
2022-09-17T00:08:15.110Z,20.50
2022-09-17T00:09:17.402Z,20.40
2022-09-17T00:10:20.364Z,20.50
2022-09-17T00:11:24.574Z,20.50
2022-09-17T00:12:26.898Z,20.50
2022-09-17T00:13:29.170Z,20.60
2022-09-17T00:14:31.435Z,20.60
2022-09-17T00:15:39.516Z,20.60
2022-09-17T00:16:43.654Z,20.70
2022-09-17T00:17:45.880Z,20.70
2022-09-17T00:18:48.071Z,20.70
2022-09-17T00:19:50.316Z,20.70
2022-09-17T00:20:52.620Z,20.70
2022-09-17T00:21:54.932Z,20.70
2022-09-17T00:22:57.177Z,20.80
2022-09-17T00:24:01.140Z,20.80
2022-09-17T00:25:04.173Z,20.80
2022-09-17T00:26:06.694Z,20.80
2022-09-17T00:27:08.998Z,20.80
2022-09-17T00:28:13.737Z,20.90
2022-09-17T00:29:16.158Z,20.90
2022-09-17T00:30:18.421Z,20.90
2022-09-17T00:31:21.218Z,20.90
2022-09-17T00:32:23.671Z,20.90
2022-09-17T00:33:25.999Z,20.80
2022-09-17T00:34:28.211Z,20.80
2022-09-17T00:35:30.652Z,20.80
2022-09-17T00:36:37.075Z,20.80
2022-09-17T00:37:39.490Z,20.70
2022-09-17T00:38:41.732Z,20.70
2022-09-17T00:39:43.963Z,20.80
2022-09-17T00:40:46.172Z,20.80
2022-09-17T00:41:48.441Z,20.80
2022-09-17T00:42:53.234Z,20.80
2022-09-17T00:43:57.838Z,20.80
2022-09-17T00:45:01.047Z,20.90
2022-09-17T00:46:04.946Z,20.90
2022-09-17T00:47:19.387Z,20.90
2022-09-17T00:48:21.829Z,20.90
2022-09-17T00:49:27.105Z,20.90
2022-09-17T00:50:35.057Z,20.90
2022-09-17T00:51:39.217Z,20.90
2022-09-17T00:52:43.871Z,21.00
2022-09-17T00:53:46.732Z,21.00
2022-09-17T00:54:54.213Z,21.00
2022-09-17T00:56:02.942Z,21.00
2022-09-17T00:57:05.160Z,21.00
2022-09-17T00:58:09.625Z,21.00
2022-09-17T00:59:11.921Z,21.00
2022-09-17T01:00:14.848Z,21.00
2022-09-17T01:01:17.265Z,20.90
2022-09-17T01:02:19.907Z,21.00
2022-09-17T01:03:22.242Z,21.00
2022-09-17T01:04:25.853Z,21.00
2022-09-17T01:05:46.558Z,21.00
2022-09-17T01:06:55.738Z,21.00
2022-09-17T01:07:58.039Z,21.00
2022-09-17T01:09:19.609Z,20.90
2022-09-17T01:10:33.682Z,20.90
2022-09-17T01:11:54.456Z,20.90
2022-09-17T01:13:05.346Z,20.90
2022-09-17T01:14:07.664Z,20.90
2022-09-17T01:15:22.846Z,21.00
2022-09-17T01:16:33.364Z,20.90
2022-09-17T01:18:04.985Z,20.90
2022-09-17T01:19:23.998Z,20.90
2022-09-17T01:20:38.150Z,21.00
2022-09-17T01:21:53.184Z,20.90
2022-09-17T01:22:55.808Z,20.90
2022-09-17T01:24:18.522Z,20.90
2022-09-17T01:25:35.147Z,20.90
2022-09-17T01:26:37.359Z,21.00
2022-09-17T01:27:58.147Z,20.90
2022-09-17T01:29:09.423Z,20.90
2022-09-17T01:30:23.232Z,21.00
2022-09-17T01:31:30.536Z,21.00
2022-09-17T01:32:42.603Z,21.00
2022-09-17T01:33:47.670Z,21.00
2022-09-17T01:35:06.395Z,21.00
2022-09-17T01:36:09.458Z,21.00
2022-09-17T01:37:17.793Z,21.00
2022-09-17T01:38:28.710Z,21.00
2022-09-17T01:39:34.325Z,21.00
2022-09-17T01:40:39.473Z,21.00
2022-09-17T01:41:45.606Z,21.00
2022-09-17T01:42:51.475Z,21.00
2022-09-17T01:44:15.393Z,21.00
2022-09-17T01:45:22.630Z,21.00
2022-09-17T01:46:29.735Z,21.00
2022-09-17T01:47:36.075Z,21.00
2022-09-17T01:48:40.964Z,21.00
2022-09-17T01:49:43.362Z,21.00
2022-09-17T01:50:48.767Z,21.00
2022-09-17T01:51:51.812Z,21.00
2022-09-17T01:52:55.255Z,21.00
2022-09-17T01:54:00.557Z,21.00
2022-09-17T01:55:05.926Z,21.00
2022-09-17T01:56:09.388Z,21.00
2022-09-17T01:57:30.320Z,21.00
2022-09-17T01:58:35.601Z,21.00
2022-09-17T01:59:41.216Z,21.00
2022-09-17T02:00:47.460Z,21.00
2022-09-17T02:01:51.841Z,21.00
2022-09-17T02:03:00.661Z,21.00
2022-09-17T02:04:17.435Z,21.00
2022-09-17T02:05:22.895Z,21.00
2022-09-17T02:06:29.877Z,21.00
2022-09-17T02:07:33.229Z,21.00
2022-09-17T02:08:37.319Z,21.00
2022-09-17T02:09:51.021Z,21.00
2022-09-17T02:10:59.054Z,21.00
2022-09-17T02:12:03.864Z,21.00
2022-09-17T02:13:17.313Z,21.00
2022-09-17T02:14:21.993Z,21.00
2022-09-17T02:15:26.587Z,21.00
2022-09-17T02:16:30.136Z,21.00
2022-09-17T02:17:35.515Z,20.90
2022-09-17T02:18:41.230Z,21.00
2022-09-17T02:19:45.745Z,21.00
2022-09-17T02:20:50.437Z,21.00
2022-09-17T02:21:52.663Z,21.00
2022-09-17T02:23:00.022Z,21.00
2022-09-17T02:24:21.461Z,21.00
2022-09-17T02:25:31.290Z,20.90
2022-09-17T02:26:35.207Z,20.90
2022-09-17T02:27:50.934Z,20.90
2022-09-17T02:29:00.472Z,20.90
2022-09-17T02:30:03.150Z,20.90
2022-09-17T02:31:05.669Z,20.80
2022-09-17T02:32:08.612Z,20.80
2022-09-17T02:33:13.974Z,20.80
2022-09-17T02:34:16.122Z,20.80
2022-09-17T02:35:18.351Z,20.80
2022-09-17T02:36:20.687Z,20.80
2022-09-17T02:37:22.871Z,20.80
2022-09-17T02:38:25.797Z,20.70
2022-09-17T02:39:28.322Z,20.70
2022-09-17T02:40:35.039Z,20.70
2022-09-17T02:42:06.631Z,20.60
2022-09-17T02:43:34.884Z,20.60
2022-09-17T02:44:50.457Z,20.50
2022-09-17T02:46:07.830Z,20.50
2022-09-17T02:47:13.131Z,20.50
2022-09-17T02:48:15.265Z,20.40
2022-09-17T02:49:17.476Z,20.30
2022-09-17T02:50:28.695Z,20.30
2022-09-17T02:51:49.340Z,20.30
2022-09-17T02:53:17.660Z,20.30
2022-09-17T02:54:31.775Z,20.20
2022-09-17T02:55:42.252Z,20.20
2022-09-17T02:56:55.486Z,20.20
2022-09-17T02:58:06.432Z,20.20
2022-09-17T02:59:11.371Z,20.10
2022-09-17T03:00:14.459Z,20.10
2022-09-17T03:01:23.754Z,20.00
2022-09-17T03:02:28.967Z,20.00
2022-09-17T03:03:42.735Z,19.90
2022-09-17T03:04:46.920Z,19.90
2022-09-17T03:05:49.861Z,20.00
2022-09-17T03:06:53.241Z,20.10
2022-09-17T03:07:56.901Z,20.10
2022-09-17T03:08:59.326Z,20.10
2022-09-17T03:10:01.484Z,20.10
2022-09-17T03:11:04.745Z,20.10
2022-09-17T03:12:07.175Z,20.10
2022-09-17T03:13:09.419Z,20.10
2022-09-17T03:14:11.559Z,20.10
2022-09-17T03:15:13.809Z,20.10
2022-09-17T03:16:16.021Z,20.10
2022-09-17T03:17:18.504Z,20.10
2022-09-17T03:18:20.977Z,20.00
2022-09-17T03:19:23.515Z,20.00
2022-09-17T03:20:25.811Z,20.00
2022-09-17T03:21:28.012Z,20.00
2022-09-17T03:22:30.553Z,20.00
2022-09-17T03:23:32.883Z,19.90
2022-09-17T03:24:35.180Z,19.90
2022-09-17T03:25:37.348Z,19.90
2022-09-17T03:26:39.808Z,19.80
2022-09-17T03:27:42.093Z,19.80
2022-09-17T03:28:44.353Z,19.80
2022-09-17T03:29:46.560Z,19.80
2022-09-17T03:30:48.849Z,19.90
2022-09-17T03:31:51.922Z,19.80
2022-09-17T03:32:54.151Z,19.80
2022-09-17T03:33:56.559Z,19.80
2022-09-17T03:34:58.881Z,19.90
2022-09-17T03:36:01.400Z,19.80
2022-09-17T03:37:03.882Z,19.90
2022-09-17T03:38:06.195Z,19.80
2022-09-17T03:39:08.666Z,19.80
2022-09-17T03:40:11.080Z,19.80
2022-09-17T03:41:13.480Z,19.80
2022-09-17T03:42:15.709Z,19.80
2022-09-17T03:43:17.892Z,19.80
2022-09-17T03:44:21.111Z,19.80
2022-09-17T03:45:23.532Z,19.80
2022-09-17T03:46:25.824Z,19.90
2022-09-17T03:47:28.078Z,20.00
2022-09-17T03:48:30.491Z,20.00
2022-09-17T03:49:32.979Z,20.00
2022-09-17T03:50:35.137Z,20.10
2022-09-17T03:51:37.371Z,20.10
2022-09-17T03:52:39.566Z,20.10
2022-09-17T03:53:41.785Z,20.20
2022-09-17T03:54:44.023Z,20.20
2022-09-17T03:55:46.329Z,20.20
2022-09-17T03:56:48.539Z,20.20
2022-09-17T03:57:51.278Z,20.30
2022-09-17T03:58:56.962Z,20.30
2022-09-17T03:59:59.273Z,20.30
2022-09-17T04:01:03.371Z,20.30
2022-09-17T04:02:06.039Z,20.30
2022-09-17T04:03:08.331Z,20.30
2022-09-17T04:04:10.552Z,20.40
2022-09-17T04:05:12.754Z,20.40
2022-09-17T04:06:15.183Z,20.50
2022-09-17T04:07:17.379Z,20.50
2022-09-17T04:08:19.877Z,20.50
2022-09-17T04:09:22.041Z,20.50
2022-09-17T04:10:24.445Z,20.50
2022-09-17T04:11:26.975Z,20.50
2022-09-17T04:12:29.134Z,20.50
2022-09-17T04:13:31.282Z,20.50
2022-09-17T04:14:33.446Z,20.50
2022-09-17T04:15:35.805Z,20.50
2022-09-17T04:16:37.973Z,20.50
2022-09-17T04:17:40.140Z,20.50
2022-09-17T04:18:42.335Z,20.50
2022-09-17T04:19:44.947Z,20.50
2022-09-17T04:20:47.259Z,20.50
2022-09-17T04:21:49.476Z,20.50
2022-09-17T04:22:51.988Z,20.50
2022-09-17T04:23:54.173Z,20.50
2022-09-17T04:24:56.339Z,20.60
2022-09-17T04:25:58.688Z,20.60
2022-09-17T04:27:00.866Z,20.60
2022-09-17T04:28:03.085Z,20.60
2022-09-17T04:29:05.321Z,20.60
2022-09-17T04:30:07.753Z,20.60
2022-09-17T04:31:09.979Z,20.60
2022-09-17T04:32:12.206Z,20.50
2022-09-17T04:33:14.388Z,20.50
2022-09-17T04:34:16.554Z,20.40
2022-09-17T04:35:18.770Z,20.40
2022-09-17T04:36:20.981Z,20.30
2022-09-17T04:37:25.635Z,20.30
2022-09-17T04:38:27.844Z,20.20
2022-09-17T04:39:30.328Z,20.20
2022-09-17T04:40:32.618Z,20.10
2022-09-17T04:41:34.885Z,20.10
2022-09-17T04:42:37.015Z,20.10
2022-09-17T04:43:39.325Z,20.00
2022-09-17T04:44:41.555Z,20.10
2022-09-17T04:45:47.560Z,20.10
2022-09-17T04:46:49.892Z,20.10
2022-09-17T04:47:52.163Z,20.10
2022-09-17T04:48:54.340Z,20.10
2022-09-17T04:49:56.530Z,20.10
2022-09-17T04:50:58.674Z,20.20
2022-09-17T04:52:01.076Z,20.20
2022-09-17T04:53:03.301Z,20.20
2022-09-17T04:54:05.773Z,20.20
2022-09-17T04:55:08.275Z,20.20
2022-09-17T04:56:10.563Z,20.10
2022-09-17T04:57:12.798Z,20.20
2022-09-17T04:58:15.201Z,20.20
2022-09-17T04:59:17.366Z,20.20
2022-09-17T05:00:20.606Z,20.20
2022-09-17T05:01:22.859Z,20.20
2022-09-17T05:02:25.181Z,20.20
2022-09-17T05:03:27.430Z,20.20
2022-09-17T05:04:29.641Z,20.20
2022-09-17T05:05:31.828Z,20.20
2022-09-17T05:06:34.151Z,20.20
2022-09-17T05:07:38.517Z,20.10
2022-09-17T05:08:40.830Z,20.10
2022-09-17T05:09:43.004Z,20.10
2022-09-17T05:10:45.263Z,20.10
2022-09-17T05:11:47.501Z,20.10
2022-09-17T05:12:50.468Z,20.10
2022-09-17T05:13:52.689Z,20.10
2022-09-17T05:14:54.808Z,20.10
2022-09-17T05:15:57.073Z,20.10
2022-09-17T05:16:59.364Z,20.10
2022-09-17T05:18:01.616Z,20.10
2022-09-17T05:19:04.121Z,20.10
2022-09-17T05:20:06.735Z,20.10
2022-09-17T05:21:09.023Z,20.10
2022-09-17T05:22:11.264Z,20.10
2022-09-17T05:23:38.632Z,20.00
2022-09-17T05:25:06.056Z,20.00
2022-09-17T05:51:12.169Z,19.90
2022-09-17T05:52:14.360Z,19.90
2022-09-17T05:53:16.686Z,19.90
2022-09-17T05:54:19.164Z,19.90
2022-09-17T05:55:22.441Z,19.90
2022-09-17T05:56:24.702Z,19.90
2022-09-17T05:57:28.793Z,19.90
2022-09-17T05:58:33.016Z,19.90
2022-09-17T05:59:36.162Z,19.90
2022-09-17T06:00:38.873Z,20.00
2022-09-17T06:01:41.247Z,19.90
2022-09-17T06:02:43.742Z,20.00
2022-09-17T06:03:46.024Z,20.00
2022-09-17T06:04:48.246Z,20.00
2022-09-17T06:05:54.572Z,20.00
2022-09-17T06:06:56.709Z,20.10
2022-09-17T06:08:01.882Z,20.10
2022-09-17T06:09:04.602Z,20.10
2022-09-17T06:15:50.184Z,20.30
2022-09-17T06:16:52.568Z,20.40
2022-09-17T06:17:54.795Z,20.40
2022-09-17T06:18:57.240Z,20.40
2022-09-17T06:19:59.624Z,20.40
2022-09-17T06:21:03.389Z,20.40
2022-09-17T06:22:05.828Z,20.30
2022-09-17T06:23:10.701Z,20.30
2022-09-17T06:24:14.970Z,20.30
2022-09-17T06:25:17.183Z,20.30
2022-09-17T06:26:21.946Z,20.30
2022-09-17T06:27:24.370Z,20.20
2022-09-17T06:28:27.411Z,20.30
2022-09-17T06:29:30.962Z,20.30
2022-09-17T06:30:34.010Z,20.40
2022-09-17T06:31:37.076Z,20.50
2022-09-17T06:32:39.281Z,20.50
2022-09-17T06:33:41.532Z,20.60
2022-09-17T06:34:45.455Z,20.70
2022-09-17T06:37:14.954Z,20.80
2022-09-17T06:38:17.920Z,20.90
2022-09-17T06:39:20.373Z,20.90
2022-09-17T06:40:23.667Z,21.10
2022-09-17T06:41:27.234Z,21.10
2022-09-17T06:42:30.840Z,21.10
2022-09-17T06:43:33.066Z,21.20
2022-09-17T06:44:36.010Z,21.20
2022-09-17T06:45:39.465Z,21.30
2022-09-17T06:46:43.102Z,21.30
2022-09-17T06:47:45.424Z,21.40
2022-09-17T06:48:48.040Z,21.40
2022-09-17T06:49:50.269Z,21.40
2022-09-17T06:50:54.255Z,21.50
2022-09-17T06:51:56.740Z,21.50
2022-09-17T06:52:58.965Z,21.60
2022-09-17T06:54:01.425Z,21.60
2022-09-17T06:55:04.624Z,21.60
2022-09-17T06:56:08.440Z,21.60
2022-09-17T06:57:11.066Z,21.70
2022-09-17T06:58:14.353Z,21.70
2022-09-17T06:59:16.460Z,21.80
2022-09-17T07:00:18.584Z,21.80
2022-09-17T07:01:22.787Z,21.80
2022-09-17T07:02:25.598Z,21.80
2022-09-17T07:03:28.875Z,21.80
2022-09-17T07:04:31.454Z,21.80
2022-09-17T07:05:33.890Z,21.80
2022-09-17T07:06:36.356Z,21.90
2022-09-17T07:07:39.159Z,21.90
2022-09-17T07:08:41.777Z,21.90
2022-09-17T07:09:43.922Z,21.90
2022-09-17T07:10:47.732Z,21.90
2022-09-17T07:11:49.894Z,22.00
2022-09-17T07:12:52.602Z,22.00
2022-09-17T07:13:56.647Z,22.00
2022-09-17T07:15:00.312Z,22.00
2022-09-17T07:16:04.208Z,22.00
2022-09-17T07:17:07.564Z,22.00
2022-09-17T07:18:10.791Z,22.10
2022-09-17T07:19:14.923Z,22.00
2022-09-17T07:20:19.068Z,22.10
2022-09-17T07:21:21.273Z,22.10
2022-09-17T07:22:24.634Z,22.10
2022-09-17T07:23:28.320Z,22.10
2022-09-17T07:24:32.832Z,22.10
2022-09-17T07:25:35.544Z,22.10
2022-09-17T07:26:37.693Z,22.10
2022-09-17T07:27:39.852Z,22.10
2022-09-17T07:28:43.890Z,22.10
2022-09-17T07:29:46.185Z,22.10
2022-09-17T07:30:50.147Z,22.10
2022-09-17T07:31:55.745Z,22.20
2022-09-17T07:33:01.267Z,22.20
2022-09-17T07:34:03.576Z,22.20
2022-09-17T07:35:07.010Z,22.20
2022-09-17T07:36:12.865Z,22.20
2022-09-17T07:37:15.557Z,22.20
2022-09-17T07:38:20.024Z,22.20
2022-09-17T07:39:23.102Z,22.20
2022-09-17T07:40:25.347Z,22.30
2022-09-17T07:41:28.512Z,22.30
2022-09-17T07:42:33.037Z,22.30
2022-09-17T07:43:35.807Z,22.20
2022-09-17T07:44:38.036Z,22.30
2022-09-17T07:45:41.533Z,22.30
2022-09-17T07:46:44.807Z,22.30
2022-09-17T07:47:47.354Z,22.30
2022-09-17T07:48:49.931Z,22.30
2022-09-17T07:49:51.988Z,22.30
2022-09-17T07:50:54.153Z,22.20
2022-09-17T07:51:56.834Z,22.30
2022-09-17T07:52:58.966Z,22.30
2022-09-17T07:54:02.212Z,22.30
2022-09-17T07:55:04.816Z,22.30
2022-09-17T07:56:11.692Z,22.30
2022-09-17T07:57:14.995Z,22.30
2022-09-17T07:58:17.212Z,22.30
2022-09-17T07:59:21.185Z,22.30
2022-09-17T08:00:24.120Z,22.30
2022-09-17T08:01:27.914Z,22.40
2022-09-17T08:02:30.894Z,22.40
2022-09-17T08:03:33.524Z,22.40
2022-09-17T08:04:36.158Z,22.40
2022-09-17T08:05:39.019Z,22.40
2022-09-17T08:06:41.318Z,22.40
2022-09-17T08:07:44.379Z,22.40
2022-09-17T08:08:46.854Z,22.40
2022-09-17T08:09:50.051Z,22.40
2022-09-17T08:10:52.218Z,22.40
2022-09-17T08:11:56.505Z,22.40
2022-09-17T08:13:01.217Z,22.50
2022-09-17T08:14:03.902Z,22.50
2022-09-17T08:15:06.620Z,22.50
2022-09-17T08:16:11.069Z,22.50
2022-09-17T08:17:13.536Z,22.50
2022-09-17T08:18:17.861Z,22.50
2022-09-17T08:19:20.316Z,22.50
2022-09-17T08:20:26.707Z,22.60
2022-09-17T08:21:28.954Z,22.50
2022-09-17T08:22:31.780Z,22.50
2022-09-17T08:23:35.881Z,22.50
2022-09-17T08:24:40.251Z,22.50
2022-09-17T08:25:42.459Z,22.50
2022-09-17T08:26:44.961Z,22.60
2022-09-17T08:27:47.070Z,22.60
2022-09-17T08:28:50.735Z,22.60
2022-09-17T08:29:54.671Z,22.60
2022-09-17T08:31:05.445Z,22.60
2022-09-17T08:32:07.635Z,22.60
2022-09-17T08:33:09.732Z,22.60
2022-09-17T08:34:11.861Z,22.60
2022-09-17T08:35:16.318Z,22.60
2022-09-17T08:36:19.616Z,22.60
2022-09-17T08:37:21.899Z,22.60
2022-09-17T08:38:24.864Z,22.60
2022-09-17T08:39:27.555Z,22.60
2022-09-17T08:40:30.009Z,22.70
2022-09-17T08:41:35.857Z,22.70
2022-09-17T08:42:41.760Z,22.70
2022-09-17T08:43:56.746Z,22.70
2022-09-17T08:45:00.774Z,22.70
2022-09-17T08:46:03.236Z,22.70
2022-09-17T08:47:14.990Z,22.70
2022-09-17T08:48:18.971Z,22.70
2022-09-17T08:49:30.067Z,22.70
2022-09-17T08:50:34.165Z,22.70
2022-09-17T08:51:37.263Z,22.70
2022-09-17T08:52:59.485Z,22.70
2022-09-17T08:54:36.859Z,22.70
2022-09-17T08:55:48.415Z,22.70
2022-09-17T08:56:55.427Z,22.70
2022-09-17T08:58:00.883Z,22.70
2022-09-17T08:59:26.581Z,22.70
2022-09-17T09:00:33.394Z,22.70
2022-09-17T09:01:35.596Z,22.80
2022-09-17T09:02:50.604Z,22.80
2022-09-17T09:03:55.698Z,22.70
2022-09-17T09:05:02.527Z,22.80
2022-09-17T09:06:10.032Z,22.80
2022-09-17T09:07:17.278Z,22.80
2022-09-17T09:08:27.507Z,22.80
2022-09-17T09:09:31.940Z,22.80
2022-09-17T09:11:01.751Z,22.80
2022-09-17T09:12:10.703Z,22.80
2022-09-17T09:13:15.882Z,22.80
2022-09-17T09:14:24.954Z,22.80
2022-09-17T09:15:38.439Z,22.80
2022-09-17T09:16:45.067Z,22.80
2022-09-17T09:17:48.740Z,22.80
2022-09-17T09:18:52.980Z,22.80
2022-09-17T09:19:56.231Z,22.90
2022-09-17T09:21:07.226Z,22.90
2022-09-17T09:22:14.800Z,22.80
2022-09-17T09:23:21.702Z,22.80
2022-09-17T09:24:26.329Z,22.80
2022-09-17T09:25:33.217Z,22.70
2022-09-17T09:26:45.870Z,22.70
2022-09-17T09:28:00.941Z,22.60
2022-09-17T09:29:19.801Z,22.60
2022-09-17T09:30:23.785Z,22.50
2022-09-17T09:31:28.003Z,22.60
2022-09-17T09:32:58.001Z,22.60
2022-09-17T10:12:03.757Z,22.70
2022-09-17T10:13:07.670Z,22.80
2022-09-17T10:14:19.129Z,22.80
2022-09-17T10:15:25.918Z,22.80
2022-09-17T10:16:29.369Z,22.80
2022-09-17T10:17:31.629Z,22.80
2022-09-17T10:18:33.715Z,22.70
2022-09-17T10:19:35.772Z,22.70
2022-09-17T10:20:48.482Z,22.70
2022-09-17T10:21:51.240Z,22.70
2022-09-17T10:22:53.736Z,22.80
2022-09-17T10:23:55.951Z,22.80
2022-09-17T10:24:59.125Z,22.80
2022-09-17T10:26:01.394Z,22.90
2022-09-17T10:27:12.139Z,22.90
2022-09-17T10:28:30.408Z,22.90
2022-09-17T10:29:33.655Z,22.90
2022-09-17T10:30:35.888Z,22.90
2022-09-17T10:31:48.099Z,22.90
2022-09-17T10:33:10.326Z,22.90
2022-09-17T10:34:19.265Z,22.90
2022-09-17T10:35:22.095Z,23.00
2022-09-17T10:36:44.215Z,23.00
2022-09-17T10:37:51.335Z,23.00
2022-09-17T10:38:54.068Z,23.00
2022-09-17T10:39:56.622Z,23.00
2022-09-17T10:41:08.565Z,23.00
2022-09-17T10:42:11.064Z,23.10
2022-09-17T10:43:16.731Z,23.10
2022-09-17T10:44:21.395Z,23.10
2022-09-17T10:45:23.518Z,23.10
2022-09-17T10:46:28.004Z,23.10
2022-09-17T10:47:37.275Z,23.10
2022-09-17T10:48:59.845Z,23.10
2022-09-17T10:50:04.010Z,23.10
2022-09-17T10:51:08.797Z,23.10
2022-09-17T10:52:31.263Z,23.10
2022-09-17T10:53:37.149Z,23.10
2022-09-17T10:54:57.920Z,23.20
2022-09-17T10:56:00.142Z,23.20
2022-09-17T10:57:03.578Z,23.10
2022-09-17T10:58:05.802Z,23.20
2022-09-17T10:59:16.989Z,23.10
2022-09-17T11:00:19.910Z,23.20
2022-09-17T11:01:25.002Z,23.20
2022-09-17T11:02:33.776Z,23.10
2022-09-17T11:03:58.341Z,23.10
2022-09-17T11:05:00.681Z,23.10
2022-09-17T11:06:14.559Z,23.00
2022-09-17T11:07:17.126Z,23.00
2022-09-17T11:08:24.422Z,23.10
2022-09-17T11:09:33.706Z,23.10
2022-09-17T11:10:39.478Z,23.10
2022-09-17T11:11:55.854Z,23.10
2022-09-17T11:13:11.861Z,23.10
2022-09-17T11:14:21.079Z,23.10
2022-09-17T11:15:24.185Z,23.10
2022-09-17T11:16:27.181Z,23.10
2022-09-17T11:17:42.928Z,23.20
2022-09-17T11:18:48.705Z,23.20
2022-09-17T11:20:10.712Z,23.20
2022-09-17T11:21:19.704Z,23.20
2022-09-17T11:22:29.174Z,23.20
2022-09-17T11:23:40.689Z,23.20
2022-09-17T11:24:48.970Z,23.20
2022-09-17T11:26:00.940Z,23.20
2022-09-17T11:27:22.246Z,23.20
2022-09-17T11:28:27.337Z,23.20
2022-09-17T11:29:29.568Z,23.20
2022-09-17T11:30:52.094Z,23.20
2022-09-17T11:32:00.609Z,23.10
2022-09-17T11:33:21.325Z,23.10
2022-09-17T11:34:27.691Z,23.00
2022-09-17T11:35:33.466Z,23.00
2022-09-17T11:36:42.498Z,23.00
2022-09-17T11:37:57.718Z,23.00
2022-09-17T11:39:09.460Z,23.00
2022-09-17T11:40:29.396Z,22.90
2022-09-17T11:41:33.830Z,22.90
2022-09-17T11:42:49.497Z,22.90
2022-09-17T11:44:03.236Z,22.90
2022-09-17T11:45:19.397Z,23.00
2022-09-17T11:46:24.794Z,23.00
2022-09-17T11:47:40.779Z,23.00
2022-09-17T11:48:52.868Z,23.00
2022-09-17T11:49:58.050Z,23.00
2022-09-17T11:51:07.157Z,23.10
2022-09-17T11:52:13.845Z,23.10
2022-09-17T11:53:26.656Z,23.10
2022-09-17T11:54:48.418Z,23.10
2022-09-17T11:55:53.797Z,23.10
2022-09-17T11:57:09.595Z,23.10
2022-09-17T11:58:16.347Z,23.10
2022-09-17T11:59:35.241Z,23.20
2022-09-17T12:00:42.672Z,23.20
2022-09-17T12:01:48.033Z,23.20
2022-09-17T12:02:57.638Z,23.20
2022-09-17T12:04:01.355Z,23.20
2022-09-17T12:05:07.492Z,23.20
2022-09-17T12:06:13.404Z,23.20
2022-09-17T12:07:16.161Z,23.20
2022-09-17T12:08:21.193Z,23.30
2022-09-17T12:09:26.061Z,23.20
2022-09-17T12:10:42.358Z,23.20
2022-09-17T12:12:02.800Z,23.30
2022-09-17T12:13:11.010Z,23.30
2022-09-17T12:14:20.271Z,23.30
2022-09-17T12:15:26.914Z,23.30
2022-09-17T12:16:43.654Z,23.30
2022-09-17T12:18:30.452Z,23.30
2022-09-17T12:19:52.697Z,23.30
2022-09-17T12:20:56.703Z,23.30
2022-09-17T12:21:58.931Z,23.30
2022-09-17T12:23:03.426Z,23.30
2022-09-17T12:24:11.336Z,23.30
2022-09-17T12:25:13.518Z,23.10
2022-09-17T12:26:33.304Z,23.00
2022-09-17T12:27:38.173Z,22.90
2022-09-17T12:28:49.315Z,22.80
2022-09-17T12:30:09.265Z,22.70
2022-09-17T12:31:31.782Z,22.60
2022-09-17T12:32:33.940Z,22.50
2022-09-17T12:33:43.112Z,22.40
2022-09-17T12:35:04.598Z,22.30
2022-09-17T12:36:30.925Z,22.20
2022-09-17T12:37:41.240Z,22.30
2022-09-17T12:38:43.394Z,22.30
2022-09-17T12:40:11.766Z,22.40
2022-09-17T12:41:19.921Z,22.50
2022-09-17T12:42:40.479Z,22.50
2022-09-17T12:43:51.577Z,22.60
2022-09-17T12:44:53.734Z,22.70
2022-09-17T12:46:23.413Z,22.70
2022-09-17T12:47:31.713Z,22.80
2022-09-17T12:48:52.331Z,22.80
2022-09-17T12:50:00.406Z,22.80
2022-09-17T12:51:29.117Z,22.90
2022-09-17T12:52:40.348Z,22.90
2022-09-17T12:53:43.690Z,22.90
2022-09-17T12:54:48.639Z,23.00
2022-09-17T12:55:50.787Z,23.00
2022-09-17T12:57:02.638Z,23.00
2022-09-17T12:58:17.646Z,23.00
2022-09-17T12:59:22.339Z,23.10
2022-09-17T13:00:24.571Z,23.10
2022-09-17T13:01:29.784Z,23.00
2022-09-17T13:02:32.421Z,23.00
2022-09-17T13:03:37.215Z,23.00
2022-09-17T13:05:01.096Z,23.00
2022-09-17T13:06:22.213Z,23.10
2022-09-17T13:07:39.482Z,23.10
2022-09-17T13:08:49.825Z,23.10
2022-09-17T13:10:10.617Z,23.10
2022-09-17T13:11:24.757Z,23.10
2022-09-17T13:12:32.581Z,23.00
2022-09-17T13:13:43.892Z,23.10
2022-09-17T13:15:02.416Z,23.10
2022-09-17T13:16:23.424Z,23.10
2022-09-17T13:17:38.003Z,23.10
2022-09-17T13:18:53.914Z,23.10
2022-09-17T13:20:27.485Z,23.10
2022-09-17T13:21:37.845Z,23.10
2022-09-17T13:22:49.176Z,23.10
2022-09-17T13:23:52.226Z,23.10
2022-09-17T13:25:09.149Z,23.10
2022-09-17T13:26:13.309Z,23.10
2022-09-17T13:27:23.334Z,23.10
2022-09-17T13:28:35.861Z,23.20
2022-09-17T13:29:44.693Z,23.20
2022-09-17T13:30:57.667Z,23.20
2022-09-17T13:31:59.941Z,23.10
2022-09-17T13:33:03.924Z,23.10
2022-09-17T13:34:18.205Z,23.10
2022-09-17T13:35:20.518Z,23.10
2022-09-17T13:36:40.104Z,23.00
2022-09-17T13:37:42.976Z,22.90
2022-09-17T13:38:45.312Z,22.80
2022-09-17T13:39:50.620Z,22.80
2022-09-17T13:41:12.870Z,22.70
2022-09-17T13:42:15.070Z,22.70
2022-09-17T13:43:19.270Z,22.70
2022-09-17T13:44:21.758Z,22.70
2022-09-17T13:45:24.801Z,22.70
2022-09-17T13:46:28.116Z,22.60
2022-09-17T13:47:53.568Z,22.60
2022-09-17T13:48:58.514Z,22.50
2022-09-17T13:50:02.694Z,22.50
2022-09-17T13:51:23.639Z,22.50
2022-09-17T13:52:48.819Z,22.50
2022-09-17T13:53:54.440Z,22.50
2022-09-17T13:54:56.998Z,22.50
2022-09-17T13:56:03.529Z,22.40
2022-09-17T13:57:08.464Z,22.40
2022-09-17T13:58:21.518Z,22.40
2022-09-17T13:59:27.705Z,22.40
2022-09-17T14:00:49.151Z,22.30
2022-09-17T14:01:59.495Z,22.30
2022-09-17T14:03:20.348Z,22.30
2022-09-17T14:04:31.652Z,22.30
2022-09-17T14:05:35.674Z,22.30
2022-09-17T14:06:37.889Z,22.30
2022-09-17T14:07:47.416Z,22.30
2022-09-17T14:08:50.337Z,22.30
2022-09-17T14:09:52.703Z,22.30
2022-09-17T14:10:55.309Z,22.30
2022-09-17T14:11:57.570Z,22.30
2022-09-17T14:13:18.042Z,22.30
2022-09-17T14:14:40.355Z,22.30
2022-09-17T14:15:43.326Z,22.30
2022-09-17T14:16:47.330Z,22.30
2022-09-17T14:17:53.349Z,22.30
2022-09-17T14:18:59.756Z,22.40
2022-09-17T14:20:05.305Z,22.40
2022-09-17T14:21:15.914Z,22.40
2022-09-17T14:22:22.145Z,22.40
2022-09-17T14:23:24.576Z,22.40
2022-09-17T14:24:29.682Z,22.40
2022-09-17T14:25:46.916Z,22.40
2022-09-17T14:27:06.986Z,22.40
2022-09-17T14:28:22.298Z,22.40
2022-09-17T14:29:35.327Z,22.40
2022-09-17T14:30:37.482Z,22.40
2022-09-17T14:31:40.748Z,22.40
2022-09-17T14:32:45.790Z,22.40
2022-09-17T14:33:48.135Z,22.40
2022-09-17T14:34:50.447Z,22.40
2022-09-17T14:35:56.394Z,22.40
2022-09-17T14:36:59.251Z,22.40
2022-09-17T14:38:20.216Z,22.40
2022-09-17T14:39:24.018Z,22.40
2022-09-17T14:40:27.115Z,22.30
2022-09-17T14:41:35.655Z,22.40
2022-09-17T14:42:38.705Z,22.40
2022-09-17T14:43:59.553Z,22.30
2022-09-17T14:45:14.453Z,22.30
2022-09-17T14:46:22.063Z,22.30
2022-09-17T14:47:24.626Z,22.30
2022-09-17T14:48:34.072Z,22.30
2022-09-17T14:49:39.927Z,22.20
2022-09-17T14:50:42.105Z,22.30
2022-09-17T14:51:44.365Z,22.30
2022-09-17T14:52:50.576Z,22.30
2022-09-17T14:54:09.825Z,22.20
2022-09-17T14:55:34.985Z,22.20
2022-09-17T14:56:43.959Z,22.20
2022-09-17T14:57:48.740Z,22.20
2022-09-17T14:58:52.550Z,22.20
2022-09-17T14:59:56.004Z,22.20
2022-09-17T15:00:58.563Z,22.20
2022-09-17T15:02:00.808Z,22.20
2022-09-17T15:03:03.248Z,22.20
2022-09-17T15:04:14.552Z,22.10
2022-09-17T15:05:26.002Z,22.20
2022-09-17T15:06:28.213Z,22.10
2022-09-17T15:07:30.511Z,22.20
2022-09-17T15:08:32.727Z,22.10
2022-09-17T15:09:34.896Z,22.10
2022-09-17T15:10:44.624Z,22.10
2022-09-17T15:11:49.994Z,22.10
2022-09-17T15:12:52.297Z,22.20
2022-09-17T15:13:54.459Z,22.10
2022-09-17T15:14:57.354Z,22.10
2022-09-17T15:16:01.837Z,22.10
2022-09-17T15:17:06.022Z,22.10
2022-09-17T15:18:13.593Z,22.10
2022-09-17T15:19:20.254Z,22.10
2022-09-17T15:20:23.734Z,22.10
2022-09-17T15:21:28.835Z,22.10
2022-09-17T15:22:34.035Z,22.20
2022-09-17T15:23:36.699Z,22.10
2022-09-17T15:24:50.243Z,22.20
2022-09-17T15:25:54.882Z,22.20
2022-09-17T15:26:58.865Z,22.20
2022-09-17T15:28:04.772Z,22.20